LESO

San Sebastian Airport

Hondarribia, Spain
TAF LESO 181700Z 1818/1918 36008KT 9999 FEW030 TX27/1915Z TN19/1906Z
Issued Valid From Valid To
Jul-18 @ 17:00 UTC
(5 hours ago)
Jul-18 @ 18:00 UTC
(4 hours ago)
Jul-19 @ 18:00 UTC
(in 20 hours)
Jul-18 @ 18:00 to Jul-19 @ 18:00
TAF LESO 181700Z 1818/1918 36008KT 9999 FEW030 TX27/1915Z TN19/1906Z
Wind Visibility Clouds
360° at 8 knots 10,000+ meters
  • Few at 3,000' AGL
TAF LESO 181700Z 1818/1918 36008KT 9999 FEW030 TX27/1915Z TN19/1906Z
Issued Jul-18 @ 17:00 UTC
(5 hours ago)
Valid From Jul-18 @ 18:00 UTC
(4 hours ago)
Valid To Jul-19 @ 18:00 UTC
(in 20 hours)
Jul-18 @ 18:00 - Jul-19 @ 18:00
Wind Visibility
360° at 8 knots 10,000+ meters
Clouds
  • Few at 3,000' AGL